Terminal Aerodrome Forecast
Issued by NWS

Home | Current Version | Previous Version | Text Only | Print | Product List | Glossary On
Versions: 1 2 3 4 5 6 7 8 9 10 11 12 13 14 15
000
FTUS45 KREV 270603 AAA
TAFTVL
TAF AMD
KTVL 270603Z 2706/2806 19008G16KT 4SM -SHRASN SCT015 BKN020 OVC040
     FM271300 19006KT P6SM SCT020 BKN035
     FM271600 18010KT P6SM VCSH SCT025 BKN035
     FM280300 VRB04KT P6SM SCT040 BKN060=

USA.gov is the U.S. government's official web portal to all federal, state and local government web resources and services.